createdAt,value
2022-10-24T00:02:57.680Z,1.33
2022-10-24T00:07:59.249Z,1.40
2022-10-24T00:13:00.761Z,1.50
2022-10-24T00:18:02.285Z,1.65
2022-10-24T00:23:04.545Z,1.80
2022-10-24T00:28:06.117Z,1.80
2022-10-24T00:33:07.587Z,1.60
2022-10-24T00:38:15.229Z,1.77
2022-10-24T00:43:20.430Z,1.90
2022-10-24T00:48:42.193Z,1.90
2022-10-24T00:53:48.055Z,2.05
2022-10-24T00:58:50.119Z,1.85
2022-10-24T01:03:51.586Z,1.80
2022-10-24T01:09:13.875Z,2.80
2022-10-24T01:14:27.211Z,2.40
2022-10-24T01:19:57.983Z,2.03
2022-10-24T01:25:10.909Z,2.67
2022-10-24T01:30:14.075Z,2.28
2022-10-24T01:35:24.022Z,2.92
2022-10-24T01:40:38.005Z,2.88
2022-10-24T01:45:44.904Z,2.28
2022-10-24T01:50:49.593Z,2.47
2022-10-24T01:55:51.262Z,2.75
2022-10-24T02:00:58.195Z,2.25
2022-10-24T02:06:08.229Z,2.13
2022-10-24T02:11:10.341Z,2.40
2022-10-24T02:16:16.561Z,2.35
2022-10-24T02:21:31.817Z,2.47
2022-10-24T02:26:39.939Z,2.35
2022-10-24T02:31:48.376Z,2.35
2022-10-24T02:36:53.596Z,2.22
2022-10-24T02:41:57.341Z,2.00
2022-10-24T02:47:02.258Z,2.53
2022-10-24T02:52:04.285Z,2.17
2022-10-24T02:57:05.824Z,1.80
2022-10-24T03:02:07.994Z,2.00
2022-10-24T03:07:09.468Z,2.05
2022-10-24T03:12:15.113Z,2.42
2022-10-24T03:17:16.575Z,2.20
2022-10-24T03:22:18.048Z,2.05
2022-10-24T03:27:19.585Z,1.83
2022-10-24T03:32:21.371Z,1.67
2022-10-24T03:37:22.880Z,1.80
2022-10-24T03:42:24.353Z,1.83
2022-10-24T03:47:25.801Z,2.17
2022-10-24T03:52:27.461Z,2.10
2022-10-24T03:57:28.928Z,1.58
2022-10-24T04:02:30.402Z,2.22
2022-10-24T04:07:31.874Z,2.00
2022-10-24T04:12:33.527Z,1.70
2022-10-24T04:17:35.006Z,1.60
2022-10-24T04:22:36.476Z,1.40
2022-10-24T04:27:40.597Z,2.05
2022-10-24T04:32:42.473Z,1.85
2022-10-24T04:37:44.156Z,1.15
2022-10-24T04:42:46.257Z,1.40
2022-10-24T04:47:47.965Z,1.45
2022-10-24T04:52:49.572Z,1.30
2022-10-24T04:57:51.598Z,2.53
2022-10-24T05:02:55.450Z,2.05
2022-10-24T05:07:59.754Z,2.07
2022-10-24T05:13:01.238Z,1.40
2022-10-24T05:18:02.918Z,2.55
2022-10-24T05:23:04.412Z,1.77
2022-10-24T05:28:06.064Z,1.40
2022-10-24T05:33:07.562Z,1.98
2022-10-24T05:38:09.255Z,1.73
2022-10-24T05:43:10.789Z,2.22
2022-10-24T05:48:12.268Z,1.67
2022-10-24T05:53:13.789Z,1.83
2022-10-24T05:58:20.880Z,1.85
2022-10-24T06:03:22.654Z,1.73
2022-10-24T06:08:25.465Z,2.05
2022-10-24T06:13:27.098Z,2.05
2022-10-24T06:18:28.551Z,1.58
2022-10-24T06:23:30.759Z,1.20
2022-10-24T06:28:32.240Z,1.90
2022-10-24T06:33:34.693Z,1.50
2022-10-24T06:38:36.882Z,1.70
2022-10-24T06:43:39.410Z,1.58
2022-10-24T06:48:40.966Z,1.50
2022-10-24T06:53:42.661Z,1.23
2022-10-24T06:58:44.873Z,1.63
2022-10-24T07:03:47.559Z,1.50
2022-10-24T07:08:51.060Z,1.77
2022-10-24T07:13:55.287Z,1.42
2022-10-24T07:18:59.722Z,1.50
2022-10-24T07:24:01.426Z,1.50
2022-10-24T07:29:03.639Z,1.63
2022-10-24T07:34:07.837Z,1.88
2022-10-24T07:39:09.727Z,1.50
2022-10-24T07:44:11.319Z,1.40
2022-10-24T07:49:12.781Z,1.60
2022-10-24T07:54:14.264Z,1.40
2022-10-24T07:59:37.037Z,1.40
2022-10-24T08:04:37.215Z,1.90
2022-10-24T08:09:40.716Z,1.20
2022-10-24T08:14:42.260Z,1.73
2022-10-24T08:19:44.444Z,1.40
2022-10-24T08:24:46.630Z,1.67
2022-10-24T08:29:48.123Z,1.50
2022-10-24T08:34:49.626Z,1.48
2022-10-24T08:39:55.526Z,1.80
2022-10-24T08:44:56.977Z,1.58
2022-10-24T08:50:06.878Z,1.90
2022-10-24T08:55:43.914Z,1.50
2022-10-24T09:00:46.775Z,1.77
2022-10-24T09:05:55.846Z,2.03
2022-10-24T09:11:02.842Z,1.80
2022-10-24T09:16:04.706Z,1.52
2022-10-24T09:21:08.554Z,2.58
2022-10-24T09:26:24.337Z,2.22
2022-10-24T09:31:27.402Z,1.55
2022-10-24T09:36:29.971Z,2.10
2022-10-24T09:41:33.287Z,1.88
2022-10-24T09:46:45.864Z,2.22
2022-10-24T09:51:58.456Z,1.90
2022-10-24T09:57:12.738Z,2.22
2022-10-24T10:02:19.783Z,2.00
2022-10-24T10:07:27.066Z,2.38
2022-10-24T10:12:40.868Z,2.30
2022-10-24T10:17:53.735Z,1.77
2022-10-24T10:22:55.575Z,2.00
2022-10-24T10:28:01.037Z,3.85
2022-10-24T10:33:07.549Z,1.80
2022-10-24T10:38:42.945Z,2.33
2022-10-24T10:43:59.503Z,2.20
2022-10-24T10:49:24.458Z,2.10
2022-10-24T10:54:47.310Z,2.78
2022-10-24T11:00:00.831Z,2.08
2022-10-24T11:05:11.843Z,2.20
2022-10-24T11:10:21.300Z,2.05
2022-10-24T11:15:37.002Z,2.28
2022-10-24T11:20:44.479Z,1.65
2022-10-24T11:25:52.321Z,2.00
2022-10-24T11:31:01.332Z,2.05
2022-10-24T11:36:08.966Z,2.42
2022-10-24T11:41:34.254Z,2.65
2022-10-24T11:46:44.643Z,2.75
2022-10-24T11:51:55.739Z,2.30
2022-10-24T11:57:02.542Z,1.98
2022-10-24T12:02:19.728Z,2.35
2022-10-24T12:07:58.520Z,2.20
2022-10-24T12:13:14.167Z,2.83
2022-10-24T12:18:30.756Z,2.85
2022-10-24T12:23:32.669Z,2.70
2022-10-24T12:28:35.717Z,2.20
2022-10-24T12:33:37.358Z,2.20
2022-10-24T12:38:39.087Z,2.55
2022-10-24T12:43:43.363Z,2.53
2022-10-24T12:49:15.568Z,2.67
2022-10-24T12:54:18.292Z,5.75
2022-10-24T12:59:28.088Z,2.38
2022-10-24T13:04:35.621Z,2.47
2022-10-24T13:09:49.240Z,1.70
2022-10-24T13:15:32.962Z,1.48
2022-10-24T13:20:43.795Z,1.48
2022-10-24T13:25:45.825Z,2.03
2022-10-24T13:30:49.749Z,2.22
2022-10-24T13:35:53.128Z,2.17
2022-10-24T13:40:55.289Z,1.90
2022-10-24T13:46:04.214Z,1.90
2022-10-24T13:51:16.134Z,2.10
2022-10-24T13:56:18.276Z,1.83
2022-10-24T14:01:27.307Z,1.77
2022-10-24T14:06:33.894Z,1.95
2022-10-24T14:11:40.825Z,1.93
2022-10-24T14:16:42.380Z,1.63
2022-10-24T14:21:48.589Z,2.10
2022-10-24T14:26:53.214Z,2.00
2022-10-24T14:32:07.886Z,1.92
2022-10-24T14:37:16.681Z,2.33
2022-10-24T14:42:18.686Z,1.65
2022-10-24T14:47:22.038Z,1.75
2022-10-24T14:52:42.532Z,1.73
2022-10-24T14:57:50.663Z,1.65
2022-10-24T15:02:55.864Z,2.83
2022-10-24T15:08:27.553Z,1.75
2022-10-24T15:13:32.682Z,1.83
2022-10-24T15:18:43.921Z,2.20
2022-10-24T15:23:54.825Z,1.95
2022-10-24T15:29:17.068Z,1.75
2022-10-24T15:34:21.702Z,1.92
2022-10-24T15:39:24.910Z,2.47
2022-10-24T15:44:29.371Z,2.58
2022-10-24T15:49:31.647Z,2.30
2022-10-24T15:54:33.401Z,2.53
2022-10-24T15:59:34.933Z,2.55
2022-10-24T16:04:40.216Z,8.27
2022-10-24T16:09:41.721Z,4.15
2022-10-24T16:14:43.200Z,2.80
2022-10-24T16:19:44.717Z,2.58
2022-10-24T16:24:46.227Z,2.92
2022-10-24T16:29:47.695Z,2.50
2022-10-24T16:34:50.257Z,3.15
2022-10-24T16:39:51.848Z,3.25
2022-10-24T16:44:53.445Z,2.80
2022-10-24T16:49:59.504Z,3.70
2022-10-24T16:55:00.961Z,3.45
2022-10-24T17:00:02.649Z,4.10
2022-10-24T17:05:04.235Z,4.60
2022-10-24T17:10:06.117Z,4.10
2022-10-24T17:15:08.930Z,4.28
2022-10-24T17:20:12.132Z,4.53
2022-10-24T17:25:26.679Z,3.45
2022-10-24T17:30:29.748Z,3.83
2022-10-24T17:35:32.264Z,4.45
2022-10-24T17:40:44.136Z,4.13
2022-10-24T17:45:45.891Z,3.88
2022-10-24T17:50:47.594Z,3.67
2022-10-24T17:55:49.147Z,2.85
2022-10-24T18:00:50.657Z,3.38
2022-10-24T18:05:52.189Z,2.75
2022-10-24T18:10:54.056Z,3.38
2022-10-24T18:15:56.215Z,3.00
2022-10-24T18:21:10.457Z,4.55
2022-10-24T18:26:20.431Z,3.63
2022-10-24T18:31:27.776Z,3.17
2022-10-24T18:36:31.661Z,3.40
2022-10-24T18:41:44.753Z,4.57
2022-10-24T18:46:46.487Z,4.05
2022-10-24T18:51:52.142Z,3.90
2022-10-24T18:56:53.667Z,4.50
2022-10-24T19:02:20.030Z,3.83
2022-10-24T19:07:21.653Z,3.38
2022-10-24T19:12:23.208Z,4.00
2022-10-24T19:17:24.749Z,3.78
2022-10-24T19:22:29.764Z,4.00
2022-10-24T19:27:31.254Z,4.82
2022-10-24T19:32:32.958Z,4.40
2022-10-24T19:37:34.499Z,4.80
2022-10-24T19:42:36.043Z,4.25
2022-10-24T19:47:37.565Z,4.68
2022-10-24T19:52:39.954Z,4.47
2022-10-24T19:57:41.428Z,4.15
2022-10-24T20:02:43.127Z,4.18
2022-10-24T20:07:44.643Z,4.60
2022-10-24T20:12:46.291Z,4.15
2022-10-24T20:17:47.980Z,4.90
2022-10-24T20:22:49.514Z,4.38
2022-10-24T20:27:50.986Z,5.72
2022-10-24T20:32:52.838Z,4.20
2022-10-24T20:37:54.297Z,4.18
2022-10-24T20:42:55.822Z,4.45
2022-10-24T20:47:57.283Z,4.28
2022-10-24T20:52:58.748Z,4.82
2022-10-24T20:58:00.198Z,5.90
2022-10-24T21:03:01.736Z,4.68
2022-10-24T21:08:03.512Z,4.72
2022-10-24T21:13:05.453Z,5.30
2022-10-24T21:18:06.936Z,5.85
2022-10-24T21:23:08.399Z,5.63
2022-10-24T21:28:09.881Z,4.78
2022-10-24T21:33:11.445Z,4.90
2022-10-24T21:38:12.925Z,4.57
2022-10-24T21:43:14.431Z,4.60
2022-10-24T21:48:16.160Z,4.90
2022-10-24T21:53:18.891Z,4.55
2022-10-24T21:58:20.352Z,5.05
2022-10-24T22:03:21.824Z,5.40
2022-10-24T22:08:24.126Z,4.55
2022-10-24T22:13:25.782Z,4.05
2022-10-24T22:18:29.658Z,3.85
2022-10-24T22:23:31.170Z,4.07
2022-10-24T22:28:32.651Z,4.60
2022-10-24T22:33:39.235Z,5.43
2022-10-24T22:38:41.030Z,4.50
2022-10-24T22:43:42.699Z,4.90
2022-10-24T22:48:48.781Z,4.00
2022-10-24T22:53:50.568Z,4.72
2022-10-24T22:58:52.205Z,5.05
2022-10-24T23:04:05.870Z,6.00
2022-10-24T23:09:10.124Z,7.72
2022-10-24T23:14:11.896Z,7.90
2022-10-24T23:19:20.914Z,7.95
2022-10-24T23:24:23.222Z,6.97
2022-10-24T23:29:31.744Z,7.28
2022-10-24T23:34:33.640Z,6.60
2022-10-24T23:39:35.864Z,6.28
2022-10-24T23:44:37.649Z,6.90
2022-10-24T23:49:47.261Z,6.30
2022-10-24T23:54:49.009Z,7.07
2022-10-24T23:59:50.454Z,6.45
